createdAt,value
2018-11-25T00:00:55.442Z,16.90
2018-11-25T00:03:43.745Z,16.57
2018-11-25T00:06:32.140Z,17.13
2018-11-25T00:09:20.469Z,15.97
2018-11-25T00:12:08.778Z,15.53
2018-11-25T00:14:57.100Z,16.80
2018-11-25T00:17:45.388Z,15.30
2018-11-25T00:20:33.688Z,15.20
2018-11-25T00:23:22.030Z,16.97
2018-11-25T00:26:10.427Z,18.37
2018-11-25T00:28:58.830Z,18.03
2018-11-25T00:31:47.262Z,18.93
2018-11-25T00:34:35.543Z,18.70
2018-11-25T00:37:23.903Z,19.20
2018-11-25T00:40:12.703Z,19.80
2018-11-25T00:43:01.054Z,20.30
2018-11-25T00:45:42.304Z,21.63
2018-11-25T00:48:23.620Z,21.90
2018-11-25T00:54:43.629Z,22.37
2018-11-25T00:57:24.724Z,21.63
2018-11-25T01:00:05.507Z,21.80
2018-11-25T01:02:47.078Z,22.67
2018-11-25T01:05:15.986Z,22.63
2018-11-25T01:08:04.273Z,22.93
2018-11-25T01:10:52.581Z,24.53
2018-11-25T01:13:40.927Z,23.37
2018-11-25T01:16:29.252Z,23.33
2018-11-25T01:19:17.534Z,23.87
2018-11-25T01:22:05.840Z,25.33
2018-11-25T01:24:54.146Z,24.23
2018-11-25T01:27:42.476Z,23.03
2018-11-25T01:30:30.803Z,25.57
2018-11-25T01:33:19.167Z,26.30
2018-11-25T01:36:07.445Z,26.07
2018-11-25T01:38:55.780Z,25.27
2018-11-25T01:41:44.102Z,25.50
2018-11-25T01:47:45.671Z,27.37
2018-11-25T01:50:33.983Z,27.53
2018-11-25T01:53:02.894Z,27.83
2018-11-25T01:55:51.470Z,26.27
2018-11-25T01:58:39.833Z,27.70
2018-11-25T02:01:28.153Z,27.97
2018-11-25T02:04:16.472Z,29.47
2018-11-25T02:07:04.771Z,29.13
2018-11-25T02:09:34.020Z,29.33
2018-11-25T02:12:22.367Z,29.03
2018-11-25T02:15:11.099Z,29.07
2018-11-25T02:17:59.463Z,29.17
2018-11-25T02:20:47.741Z,29.80
2018-11-25T02:23:16.658Z,29.30
2018-11-25T02:26:05.110Z,28.83
2018-11-25T02:28:34.022Z,27.67
2018-11-25T02:31:22.296Z,27.07
2018-11-25T02:34:10.611Z,26.17
2018-11-25T02:36:58.942Z,26.07
2018-11-25T02:39:27.876Z,26.07
2018-11-25T02:42:16.149Z,25.10
2018-11-25T02:45:04.638Z,24.00
2018-11-25T02:47:52.936Z,24.27
2018-11-25T02:50:30.971Z,23.67
2018-11-25T02:53:01.026Z,21.60
2018-11-25T02:55:29.911Z,21.83
2018-11-25T02:58:18.228Z,23.60
2018-11-25T03:00:47.170Z,23.47
2018-11-25T03:03:36.032Z,23.70
2018-11-25T03:06:24.363Z,22.70
2018-11-25T03:09:12.749Z,21.93
2018-11-25T03:12:01.447Z,22.13
2018-11-25T03:14:49.902Z,22.17
2018-11-25T03:17:38.168Z,22.63
2018-11-25T03:20:26.479Z,22.03
2018-11-25T03:23:14.789Z,23.13
2018-11-25T03:26:03.122Z,26.37
2018-11-25T03:28:32.015Z,27.73
2018-11-25T03:31:00.907Z,27.60
2018-11-25T03:33:49.223Z,27.63
2018-11-25T03:36:37.521Z,28.73
2018-11-25T03:39:25.841Z,28.97
2018-11-25T03:42:14.148Z,28.63
2018-11-25T03:44:55.438Z,29.53
2018-11-25T03:47:24.346Z,30.63
2018-11-25T03:49:53.285Z,30.50
2018-11-25T03:52:22.202Z,28.50
2018-11-25T03:55:10.946Z,29.20
2018-11-25T03:57:59.290Z,27.87
2018-11-25T04:00:47.597Z,28.10
2018-11-25T04:03:35.918Z,28.27
2018-11-25T04:06:05.316Z,27.53
2018-11-25T04:08:34.207Z,27.60
2018-11-25T04:11:03.164Z,28.20
2018-11-25T04:13:51.495Z,27.60
2018-11-25T04:16:39.838Z,29.17
2018-11-25T04:19:28.154Z,27.53
2018-11-25T04:22:16.470Z,28.20
2018-11-25T04:24:45.431Z,26.80
2018-11-25T04:27:33.751Z,26.33
2018-11-25T04:30:22.126Z,26.87
2018-11-25T04:32:51.461Z,26.60
2018-11-25T04:35:39.790Z,26.63
2018-11-25T04:38:28.110Z,25.67
2018-11-25T04:41:16.465Z,27.00
2018-11-25T04:43:45.375Z,27.63
2018-11-25T04:46:14.263Z,25.17
2018-11-25T04:49:02.994Z,25.67
2018-11-25T04:51:31.855Z,25.33
2018-11-25T04:54:20.200Z,24.07
2018-11-25T04:57:08.489Z,25.67
2018-11-25T04:59:56.820Z,25.27
2018-11-25T05:02:25.678Z,24.10
2018-11-25T05:05:14.362Z,25.37
2018-11-25T05:08:02.667Z,24.90
2018-11-25T05:10:31.641Z,25.60
2018-11-25T05:13:19.951Z,25.93
2018-11-25T05:16:08.293Z,26.10
2018-11-25T05:18:37.200Z,24.13
2018-11-25T05:21:06.078Z,23.30
2018-11-25T05:23:54.404Z,24.53
2018-11-25T05:26:42.711Z,24.93
2018-11-25T05:29:11.641Z,24.83
2018-11-25T05:31:59.940Z,25.37
2018-11-25T05:34:48.252Z,23.90
2018-11-25T05:37:36.563Z,23.60
2018-11-25T05:40:24.880Z,25.30
2018-11-25T05:43:13.174Z,24.73
2018-11-25T05:45:42.110Z,25.47
2018-11-25T05:51:43.250Z,29.10
2018-11-25T05:54:31.580Z,27.53
2018-11-25T05:57:19.892Z,26.17
2018-11-25T06:00:17.553Z,25.87
2018-11-25T06:03:05.793Z,25.77
2018-11-25T06:05:34.795Z,22.53
2018-11-25T06:08:23.082Z,23.33
2018-11-25T06:11:11.417Z,21.07
2018-11-25T06:13:59.716Z,21.80
2018-11-25T06:16:48.033Z,22.60
2018-11-25T06:19:36.591Z,20.37
2018-11-25T06:22:24.918Z,21.37
2018-11-25T06:25:13.803Z,20.60
2018-11-25T06:28:02.126Z,21.40
2018-11-25T06:30:50.414Z,20.67
2018-11-25T06:33:38.735Z,21.40
2018-11-25T06:36:27.058Z,21.30
2018-11-25T06:39:15.393Z,21.80
2018-11-25T06:42:03.680Z,20.77
2018-11-25T06:44:52.865Z,20.70
2018-11-25T06:47:41.179Z,20.10
2018-11-25T06:50:29.508Z,19.00
2018-11-25T06:53:17.823Z,19.43
2018-11-25T06:56:06.135Z,18.33
2018-11-25T06:58:54.461Z,18.37
2018-11-25T07:01:42.792Z,18.47
2018-11-25T07:04:31.117Z,18.13
2018-11-25T07:07:19.637Z,19.03
2018-11-25T07:10:09.051Z,19.00
2018-11-25T07:12:57.378Z,18.03
2018-11-25T07:15:45.703Z,17.67
2018-11-25T07:22:05.028Z,18.17
2018-11-25T07:24:53.364Z,19.17
2018-11-25T07:27:41.680Z,18.07
2018-11-25T07:30:30.000Z,18.60
2018-11-25T07:33:18.290Z,18.90
2018-11-25T07:36:06.724Z,18.07
2018-11-25T07:38:55.033Z,17.73
2018-11-25T07:41:43.379Z,19.37
2018-11-25T07:44:12.311Z,17.97
2018-11-25T07:47:00.726Z,18.00
2018-11-25T07:49:49.057Z,16.73
2018-11-25T07:52:18.074Z,16.27
2018-11-25T07:55:09.740Z,17.63
2018-11-25T07:57:58.374Z,16.53
2018-11-25T08:00:46.673Z,17.03
2018-11-25T08:03:15.627Z,19.13
2018-11-25T08:06:03.959Z,19.03
2018-11-25T08:08:52.340Z,20.83
2018-11-25T08:11:41.127Z,21.07
2018-11-25T08:14:29.433Z,20.63
2018-11-25T08:17:17.768Z,22.07
2018-11-25T08:20:07.108Z,21.67
2018-11-25T08:22:55.413Z,22.17
2018-11-25T08:25:43.730Z,21.67
2018-11-25T08:28:32.060Z,20.23
2018-11-25T08:31:20.421Z,20.73
2018-11-25T08:34:08.835Z,21.87
2018-11-25T08:36:57.084Z,20.90
2018-11-25T08:39:45.396Z,21.40
2018-11-25T08:42:33.757Z,21.77
2018-11-25T08:45:22.072Z,22.03
2018-11-25T08:47:51.041Z,21.87
2018-11-25T08:50:39.317Z,22.97
2018-11-25T08:53:27.629Z,23.90
2018-11-25T08:56:15.946Z,22.77
2018-11-25T08:58:45.062Z,24.57
2018-11-25T09:01:33.364Z,24.90
2018-11-25T09:04:21.814Z,25.47
2018-11-25T09:06:50.853Z,26.17
2018-11-25T09:09:39.188Z,25.70
2018-11-25T09:12:08.175Z,26.57
2018-11-25T09:14:56.526Z,24.70
2018-11-25T09:17:44.848Z,27.10
2018-11-25T09:20:33.226Z,27.00
2018-11-25T09:23:21.583Z,26.53
2018-11-25T09:26:09.880Z,25.90
2018-11-25T09:28:58.194Z,27.20
2018-11-25T09:31:46.505Z,27.17
2018-11-25T09:34:15.455Z,29.00
2018-11-25T09:37:03.780Z,26.83
2018-11-25T09:39:52.116Z,28.10
2018-11-25T09:42:40.495Z,27.60
2018-11-25T09:45:21.834Z,28.80
2018-11-25T09:47:51.242Z,27.97
2018-11-25T09:50:39.600Z,27.90
2018-11-25T09:53:27.946Z,28.63
2018-11-25T09:56:16.236Z,29.00
2018-11-25T09:59:04.562Z,27.13
2018-11-25T10:01:52.941Z,29.67
2018-11-25T10:04:41.274Z,30.10
2018-11-25T10:07:29.559Z,30.37
2018-11-25T10:09:58.522Z,31.53
2018-11-25T10:12:46.820Z,31.10
2018-11-25T10:15:35.137Z,30.50
2018-11-25T10:18:04.040Z,31.10
2018-11-25T10:20:33.337Z,31.10
2018-11-25T10:23:21.635Z,30.40
2018-11-25T10:26:09.950Z,29.17
2018-11-25T10:28:58.299Z,31.63
2018-11-25T10:31:46.618Z,30.63
2018-11-25T10:34:34.916Z,30.13
2018-11-25T10:37:23.241Z,29.87
2018-11-25T10:40:30.919Z,29.17
2018-11-25T10:42:59.831Z,27.40
2018-11-25T10:45:48.114Z,28.03
2018-11-25T10:48:36.416Z,28.43
2018-11-25T10:51:24.728Z,27.70
2018-11-25T10:53:53.720Z,28.63
2018-11-25T10:56:42.028Z,28.97
2018-11-25T10:59:30.433Z,28.07
2018-11-25T11:02:37.875Z,26.80
2018-11-25T11:05:45.318Z,27.40
2018-11-25T11:08:14.324Z,26.70
2018-11-25T11:10:43.222Z,26.90
2018-11-25T11:13:31.529Z,27.40
2018-11-25T11:16:19.912Z,26.10
2018-11-25T11:19:08.244Z,27.10
2018-11-25T11:21:56.589Z,26.83
2018-11-25T11:24:25.508Z,27.23
2018-11-25T11:27:13.888Z,27.53
2018-11-25T11:30:02.245Z,29.13
2018-11-25T11:32:31.129Z,30.03
2018-11-25T11:35:19.423Z,30.43
2018-11-25T11:37:48.386Z,30.23
2018-11-25T11:40:36.731Z,30.10
2018-11-25T11:43:05.990Z,28.70
2018-11-25T11:45:54.349Z,28.27
2018-11-25T11:48:23.272Z,28.57
2018-11-25T11:50:52.370Z,27.83
2018-11-25T11:53:40.719Z,27.40
2018-11-25T11:56:29.100Z,28.17
2018-11-25T11:59:17.392Z,28.33
2018-11-25T12:02:06.113Z,30.83
2018-11-25T12:04:35.269Z,32.63
2018-11-25T12:07:04.259Z,31.23
2018-11-25T12:09:52.591Z,31.23
2018-11-25T12:12:40.879Z,28.67
2018-11-25T12:15:31.113Z,29.33
2018-11-25T12:17:59.043Z,28.50
2018-11-25T12:20:29.150Z,27.90
2018-11-25T12:22:58.647Z,27.40
2018-11-25T12:25:46.977Z,26.37
2018-11-25T12:28:35.004Z,26.13
2018-11-25T12:31:03.994Z,26.43
2018-11-25T12:33:52.291Z,25.07
2018-11-25T12:39:34.341Z,24.30
2018-11-25T12:45:10.398Z,25.87
2018-11-25T12:47:51.575Z,24.63
2018-11-25T12:50:32.681Z,23.63
2018-11-25T12:53:01.729Z,23.20
2018-11-25T12:55:50.159Z,23.07
2018-11-25T12:58:38.531Z,24.07
2018-11-25T13:01:26.893Z,24.17
2018-11-25T13:04:15.258Z,23.80
2018-11-25T13:07:03.604Z,24.73
2018-11-25T13:09:51.942Z,24.63
2018-11-25T13:12:40.268Z,25.00
2018-11-25T13:15:28.594Z,25.63
2018-11-25T13:18:16.981Z,27.10
2018-11-25T13:21:05.392Z,27.43
2018-11-25T13:23:53.832Z,27.50
2018-11-25T13:26:22.727Z,28.60
2018-11-25T13:29:11.054Z,28.97
2018-11-25T13:31:40.081Z,28.67
2018-11-25T13:34:28.423Z,30.30
2018-11-25T13:36:57.482Z,30.03
2018-11-25T13:39:45.978Z,29.50
2018-11-25T13:42:34.252Z,28.07
2018-11-25T13:45:02.178Z,27.40
2018-11-25T13:47:31.364Z,26.20
2018-11-25T13:50:19.901Z,26.50
2018-11-25T13:53:08.257Z,25.50
2018-11-25T13:55:56.605Z,23.77
2018-11-25T13:58:25.610Z,23.80
2018-11-25T14:00:54.538Z,22.20
2018-11-25T14:03:42.941Z,21.43
2018-11-25T14:06:13.687Z,21.37
2018-11-25T14:08:43.824Z,23.20
2018-11-25T14:11:32.960Z,22.30
2018-11-25T14:14:20.481Z,21.50
2018-11-25T14:17:08.811Z,21.43
2018-11-25T14:19:57.168Z,21.00
2018-11-25T14:22:45.457Z,21.23
2018-11-25T14:25:33.786Z,22.47
2018-11-25T14:28:22.115Z,21.70
2018-11-25T14:30:53.305Z,21.33
2018-11-25T14:33:41.618Z,20.70
2018-11-25T14:36:10.565Z,22.47
2018-11-25T14:38:58.991Z,22.07
2018-11-25T14:41:47.330Z,21.00
2018-11-25T14:47:24.834Z,22.03
2018-11-25T14:50:13.766Z,23.00
2018-11-25T14:53:37.845Z,24.17
2018-11-25T14:56:26.157Z,22.83
2018-11-25T15:02:49.007Z,23.77
2018-11-25T15:05:38.179Z,25.00
2018-11-25T15:08:26.871Z,24.53
2018-11-25T15:11:15.156Z,24.80
2018-11-25T15:14:03.217Z,24.73
2018-11-25T15:16:32.129Z,26.37
2018-11-25T15:19:20.600Z,24.90
2018-11-25T15:22:08.946Z,25.90
2018-11-25T15:28:11.079Z,24.37
2018-11-25T15:30:40.016Z,24.40
2018-11-25T15:33:28.321Z,23.97
2018-11-25T15:35:57.237Z,23.93
2018-11-25T15:38:45.588Z,24.83
2018-11-25T15:41:33.919Z,24.67
2018-11-25T15:44:22.322Z,26.40
2018-11-25T15:46:51.327Z,25.23
2018-11-25T15:53:43.468Z,24.77
2018-11-25T15:56:49.975Z,23.47
2018-11-25T15:59:45.806Z,25.30
2018-11-25T16:02:34.164Z,24.70
2018-11-25T16:05:26.274Z,24.60
2018-11-25T16:08:14.340Z,24.43
2018-11-25T16:11:02.631Z,26.27
2018-11-25T16:17:41.005Z,24.60
2018-11-25T16:20:29.284Z,24.70
2018-11-25T16:23:17.599Z,24.53
2018-11-25T16:26:25.350Z,23.73
2018-11-25T16:29:32.999Z,23.80
2018-11-25T16:32:02.000Z,24.80
2018-11-25T16:34:50.281Z,24.23
2018-11-25T16:37:39.146Z,23.77
2018-11-25T16:40:27.496Z,23.63
2018-11-25T16:43:15.895Z,23.63
2018-11-25T16:46:04.165Z,23.17
2018-11-25T16:48:52.470Z,23.13
2018-11-25T16:51:40.778Z,23.73
2018-11-25T16:54:29.136Z,23.77
2018-11-25T16:57:17.445Z,22.53
2018-11-25T17:00:25.143Z,22.07
2018-11-25T17:02:54.505Z,22.07
2018-11-25T17:05:25.682Z,23.13
2018-11-25T17:08:14.965Z,22.53
2018-11-25T17:10:44.501Z,21.97
2018-11-25T17:13:33.035Z,23.60
2018-11-25T17:16:21.472Z,21.73
2018-11-25T17:19:09.868Z,22.13
2018-11-25T17:21:38.838Z,23.60
2018-11-25T17:24:27.198Z,23.27
2018-11-25T17:27:15.507Z,22.13
2018-11-25T17:30:04.871Z,21.97
2018-11-25T17:32:53.583Z,22.80
2018-11-25T17:35:42.328Z,23.17
2018-11-25T17:38:30.640Z,22.70
2018-11-25T17:40:59.574Z,23.23
2018-11-25T17:43:47.920Z,21.50
2018-11-25T17:46:17.655Z,22.33
2018-11-25T17:48:47.071Z,22.63
2018-11-25T17:51:35.351Z,22.63
2018-11-25T17:54:23.715Z,23.13
2018-11-25T17:56:53.527Z,22.87
2018-11-25T17:59:41.156Z,22.33
2018-11-25T18:02:29.446Z,23.23
2018-11-25T18:05:17.769Z,21.87
2018-11-25T18:07:46.739Z,22.87
2018-11-25T18:10:35.148Z,23.00
2018-11-25T18:13:04.197Z,21.80
2018-11-25T18:15:53.063Z,23.47
2018-11-25T18:18:42.806Z,22.00
2018-11-25T18:21:13.959Z,22.30
2018-11-25T18:24:02.250Z,21.47
2018-11-25T18:26:50.733Z,20.50
2018-11-25T18:29:39.056Z,21.87
2018-11-25T18:32:07.977Z,21.83
2018-11-25T18:34:56.425Z,22.37
2018-11-25T18:37:46.604Z,21.23
2018-11-25T18:40:34.987Z,20.87
2018-11-25T18:43:23.329Z,21.97
2018-11-25T18:46:04.294Z,21.50
2018-11-25T18:48:45.604Z,21.23
2018-11-25T18:51:27.397Z,20.50
2018-11-25T18:53:56.524Z,20.07
2018-11-25T18:56:25.362Z,21.57
2018-11-25T18:59:13.669Z,19.83
2018-11-25T19:02:03.164Z,21.43
2018-11-25T19:04:32.087Z,20.40
2018-11-25T19:07:20.378Z,20.13
2018-11-25T19:10:18.064Z,20.53
2018-11-25T19:13:06.440Z,22.17
2018-11-25T19:15:54.769Z,20.67
2018-11-25T19:18:43.057Z,20.73
2018-11-25T19:21:31.398Z,22.10
2018-11-25T19:24:00.375Z,21.53
2018-11-25T19:26:29.538Z,21.50
2018-11-25T19:28:58.584Z,22.50
2018-11-25T19:31:46.905Z,21.67
2018-11-25T19:34:35.229Z,22.43
2018-11-25T19:37:23.557Z,22.93
2018-11-25T19:39:52.575Z,23.73
2018-11-25T19:42:41.002Z,22.63
2018-11-25T19:45:29.502Z,23.70
2018-11-25T19:48:17.948Z,22.73
2018-11-25T19:51:06.394Z,23.17
2018-11-25T19:53:54.723Z,23.43
2018-11-25T19:56:43.043Z,23.73
2018-11-25T19:59:31.375Z,24.37
2018-11-25T20:04:54.656Z,25.07
2018-11-25T20:07:23.648Z,25.27
2018-11-25T20:10:12.501Z,26.00
2018-11-25T20:15:32.715Z,25.00
2018-11-25T20:18:03.138Z,24.80
2018-11-25T20:21:30.134Z,25.17
2018-11-25T20:24:19.145Z,24.43
2018-11-25T20:27:27.033Z,25.03
2018-11-25T20:33:23.929Z,24.20
2018-11-25T20:36:12.398Z,24.43
2018-11-25T20:39:19.866Z,25.50
2018-11-25T20:41:49.036Z,24.43
2018-11-25T20:44:37.623Z,23.87
2018-11-25T20:47:25.961Z,24.03
2018-11-25T20:50:15.278Z,25.27
2018-11-25T20:53:23.075Z,25.03
2018-11-25T20:56:11.696Z,25.40
2018-11-25T20:58:41.198Z,26.43
2018-11-25T21:01:29.713Z,26.50
2018-11-25T21:04:18.823Z,26.90
2018-11-25T21:06:47.916Z,25.70
2018-11-25T21:09:36.501Z,25.50
2018-11-25T21:12:25.453Z,27.33
2018-11-25T21:15:13.955Z,27.03
2018-11-25T21:18:22.290Z,25.93
2018-11-25T21:20:51.727Z,25.63
2018-11-25T21:23:40.143Z,27.33
2018-11-25T21:26:29.378Z,27.50
2018-11-25T21:29:17.840Z,27.90
2018-11-25T21:32:06.426Z,27.57
2018-11-25T21:34:55.339Z,27.53
2018-11-25T21:37:44.083Z,27.90
2018-11-25T21:40:32.445Z,28.67
2018-11-25T21:43:01.502Z,28.97
2018-11-25T21:45:50.123Z,28.60
2018-11-25T21:48:39.427Z,29.10
2018-11-25T21:51:28.015Z,29.37
2018-11-25T21:53:57.402Z,27.00
2018-11-25T21:56:46.122Z,28.43
2018-11-25T21:59:35.128Z,29.20
2018-11-25T22:02:04.715Z,27.40
2018-11-25T22:04:53.254Z,27.93
2018-11-25T22:07:41.989Z,28.67
2018-11-25T22:10:13.081Z,29.20
2018-11-25T22:13:01.963Z,28.90
2018-11-25T22:18:39.372Z,29.37
2018-11-25T22:21:27.684Z,30.60
2018-11-25T22:24:16.007Z,29.00
2018-11-25T22:27:04.339Z,29.03
2018-11-25T22:29:52.647Z,29.70
2018-11-25T22:32:41.006Z,30.37
2018-11-25T22:35:29.303Z,30.87
2018-11-25T22:37:58.312Z,29.07
2018-11-25T22:40:46.635Z,29.07
2018-11-25T22:43:34.974Z,29.03
2018-11-25T22:46:03.939Z,29.00
2018-11-25T22:48:52.256Z,30.33
2018-11-25T22:51:40.603Z,27.73
2018-11-25T22:54:28.971Z,29.60
2018-11-25T22:57:17.278Z,29.20
2018-11-25T22:59:46.152Z,28.63
2018-11-25T23:05:47.616Z,29.63
2018-11-25T23:08:35.927Z,28.23
2018-11-25T23:11:24.241Z,28.27
2018-11-25T23:14:12.574Z,28.90
2018-11-25T23:17:00.875Z,28.47
2018-11-25T23:22:43.647Z,28.33
2018-11-25T23:25:32.003Z,28.40
2018-11-25T23:28:20.340Z,27.77
2018-11-25T23:31:08.746Z,28.97
2018-11-25T23:33:57.256Z,28.70
2018-11-25T23:36:26.165Z,27.67
2018-11-25T23:38:55.256Z,29.00
2018-11-25T23:44:56.800Z,27.13
2018-11-25T23:50:39.465Z,29.37
2018-11-25T23:53:27.794Z,29.63
2018-11-25T23:55:56.907Z,29.03
2018-11-25T23:58:45.245Z,30.10
